Holly Ann — WDE9094 — position and weather

sailwx.info

Track history (hours):
 
Tides and Currents Weather Stations Pressure Air Temp Water Temp Dewpoint Dewpoint Depression Visibility Wind Speed Wind Dir Waves Ship Positions

Holly Ann

Owner: Manke Tug and Barge Co., Inc., Shelton, WA. More information available from US FCC via Universal Licensing System and Coast Guard Vessel Documentation Center.

Last reported at 2016-May-25 02:31 UTC. Time now 2016-May-25 16:58 UTC.
Position N 47°12' W 122°48'.

; draft 4.5 m.

Type: Towing. MMSI: 367413350.

Date/timePositionNaut miles runAvg speedWind from/ knotsBaromVisibWave heightAir tempDewpointWater temp
2016-May-25 02:31N 47°12' W 122°48'6 2.7
2016-May-25 00:11N 47°11' W 122°39'5 7.8
2016-May-24 23:33N 47°15' W 122°34'9 8.8
2016-May-24 22:33N 47°24' W 122°32'7 7.2
2016-May-24 21:33N 47°31' W 122°29'7 6.6
2016-May-24 20:33N 47°36' W 122°23'3 3.4
2016-May-24 19:33N 47°33' W 122°21'0 0.0
2016-May-24 18:33N 47°33' W 122°21'0 0.0
2016-May-24 17:33N 47°33' W 122°21'0 0.0
2016-May-24 16:33N 47°33' W 122°21'0 0.0
2016-May-24 15:33N 47°33' W 122°21'0 0.0
2016-May-24 14:33N 47°33' W 122°21'0 0.0
2016-May-24 13:33N 47°33' W 122°21'0 0.0
2016-May-24 12:33N 47°33' W 122°21'0 0.0
2016-May-24 11:34N 47°33' W 122°21'0 0.0
2016-May-24 10:33N 47°33' W 122°21'0 0.3
2016-May-24 09:33N 47°34' W 122°21'4 3.9
2016-May-24 08:33N 47°33' W 122°26'9 9.1
2016-May-24 07:33N 47°25' W 122°32'9 9.2
2016-May-24 06:33N 47°16' W 122°34'  
2016-May-20 23:16N 47°11' W 122°39'7 9.8
2016-May-20 22:33N 47°17' W 122°33'1010.2
2016-May-20 21:33N 47°27' W 122°31'1110.4
2016-May-20 20:33N 47°36' W 122°23'2 2.5
2016-May-20 19:33N 47°34' W 122°21'0 0.0
2016-May-20 18:33N 47°34' W 122°21'0 0.0
2016-May-20 17:33N 47°34' W 122°21'0 0.0
2016-May-20 16:33N 47°34' W 122°21'0 0.0
2016-May-20 15:33N 47°34' W 122°21'0 0.0
2016-May-20 14:33N 47°34' W 122°21'0 0.0
2016-May-20 13:33N 47°34' W 122°21'0 0.0
2016-May-20 12:33N 47°34' W 122°21'0 0.0
2016-May-20 11:33N 47°34' W 122°21'0 0.0
2016-May-20 10:33N 47°34' W 122°21'0 0.0
2016-May-20 09:33N 47°34' W 122°21'0 0.0
2016-May-20 08:33N 47°34' W 122°21'0 0.1
2016-May-20 07:33N 47°34' W 122°21'3 2.9
2016-May-20 06:33N 47°35' W 122°25'8 8.5
2016-May-20 05:33N 47°28' W 122°31'9 9.0
2016-May-20 04:33N 47°19' W 122°33'9 8.6
2016-May-20 03:33N 47°11' W 122°39'3 0.1
2016-May-19 07:33N 47°13' W 122°36'7 7.2
2016-May-19 06:33N 47°20' W 122°33'7 7.2
2016-May-19 05:33N 47°27' W 122°31'6 6.3
2016-May-19 04:33N 47°33' W 122°28'7 6.8
2016-May-19 03:33N 47°40' W 122°28'7 7.3
2016-May-19 02:33N 47°47' W 122°25'6 6.2
2016-May-19 01:33N 47°53' W 122°22'6 6.3
2016-May-19 00:33N 47°59' W 122°20'5 4.5
2016-May-18 23:32N 48°01' W 122°13'2 0.7
2016-May-18 21:06N 48°01' W 122°11'0 0.0
2016-May-18 20:33N 48°01' W 122°11'0 0.0
2016-May-18 19:33N 48°01' W 122°11'0 0.0
2016-May-18 15:33N 48°01' W 122°11'0 0.0
2016-May-18 14:31N 48°01' W 122°11'0 0.0
2016-May-18 10:23N 48°01' W 122°11'3 3.0
2016-May-18 09:34N 47°59' W 122°14'6 5.9
2016-May-18 08:33N 47°55' W 122°20'7 7.1
2016-May-18 07:33N 47°49' W 122°24'7 7.1
2016-May-18 06:33N 47°42' W 122°26'7 7.3
2016-May-18 05:33N 47°35' W 122°28'7 6.8
2016-May-18 04:33N 47°28' W 122°31'7 7.2
2016-May-18 03:34N 47°21' W 122°33'8 8.0
2016-May-18 02:33N 47°13' W 122°36'1 0.1
2016-May-17 07:31N 47°12' W 122°37'8 8.0
2016-May-17 06:33N 47°20' W 122°33'7 7.1
2016-May-17 05:33N 47°26' W 122°31'7 7.0
2016-May-17 04:33N 47°33' W 122°27'5 4.5
2016-May-17 03:33N 47°34' W 122°21'1 0.6
2016-May-17 02:33N 47°33' W 122°21'0 0.0
2016-May-17 01:33N 47°33' W 122°21'0 0.0
2016-May-17 00:33N 47°33' W 122°21'0 0.0
2016-May-16 23:33N 47°33' W 122°21'0 0.0
2016-May-16 22:33N 47°33' W 122°21'0 0.0
2016-May-16 21:34N 47°33' W 122°21'0 0.0
2016-May-16 20:33N 47°33' W 122°21'0 0.0
2016-May-16 19:33N 47°33' W 122°21'0 0.0
2016-May-16 18:33N 47°33' W 122°21'0 0.0
2016-May-16 17:33N 47°33' W 122°21'0 0.0
2016-May-16 16:33N 47°33' W 122°21'1 0.7
2016-May-16 15:33N 47°34' W 122°21'4 4.0
2016-May-16 14:33N 47°33' W 122°27'9 8.8
2016-May-16 13:33N 47°25' W 122°32'10 9.6
2016-May-16 12:33N 47°15' W 122°34'  
Track history (hours):
 
Tides and Currents Weather Stations Pressure Air Temp Water Temp Dewpoint Dewpoint Depression Visibility Wind Speed Wind Dir Waves Ship Positions

Holly Ann

Owner: Manke Tug and Barge Co., Inc., Shelton, WA. More information available from US FCC via Universal Licensing System and Coast Guard Vessel Documentation Center.

Last reported at 2016-May-25 02:31 UTC. Time now 2016-May-25 16:58 UTC.
Position N 47°12' W 122°48'.

; draft 4.5 m.

Type: Towing. MMSI: 367413350.

Date/timePositionNaut miles runAvg speedWind from/ knotsBaromVisibWave heightAir tempDewpointWater temp
2016-May-25 02:31N 47°12' W 122°48'6 2.7
2016-May-25 00:11N 47°11' W 122°39'5 7.8
2016-May-24 23:33N 47°15' W 122°34'9 8.8
2016-May-24 22:33N 47°24' W 122°32'7 7.2
2016-May-24 21:33N 47°31' W 122°29'7 6.6
2016-May-24 20:33N 47°36' W 122°23'3 3.4
2016-May-24 19:33N 47°33' W 122°21'0 0.0
2016-May-24 18:33N 47°33' W 122°21'0 0.0
2016-May-24 17:33N 47°33' W 122°21'0 0.0
2016-May-24 16:33N 47°33' W 122°21'0 0.0
2016-May-24 15:33N 47°33' W 122°21'0 0.0
2016-May-24 14:33N 47°33' W 122°21'0 0.0
2016-May-24 13:33N 47°33' W 122°21'0 0.0
2016-May-24 12:33N 47°33' W 122°21'0 0.0
2016-May-24 11:34N 47°33' W 122°21'0 0.0
2016-May-24 10:33N 47°33' W 122°21'0 0.3
2016-May-24 09:33N 47°34' W 122°21'4 3.9
2016-May-24 08:33N 47°33' W 122°26'9 9.1
2016-May-24 07:33N 47°25' W 122°32'9 9.2
2016-May-24 06:33N 47°16' W 122°34'  
2016-May-20 23:16N 47°11' W 122°39'7 9.8
2016-May-20 22:33N 47°17' W 122°33'1010.2
2016-May-20 21:33N 47°27' W 122°31'1110.4
2016-May-20 20:33N 47°36' W 122°23'2 2.5
2016-May-20 19:33N 47°34' W 122°21'0 0.0
2016-May-20 18:33N 47°34' W 122°21'0 0.0
2016-May-20 17:33N 47°34' W 122°21'0 0.0
2016-May-20 16:33N 47°34' W 122°21'0 0.0
2016-May-20 15:33N 47°34' W 122°21'0 0.0
2016-May-20 14:33N 47°34' W 122°21'0 0.0
2016-May-20 13:33N 47°34' W 122°21'0 0.0
2016-May-20 12:33N 47°34' W 122°21'0 0.0
2016-May-20 11:33N 47°34' W 122°21'0 0.0
2016-May-20 10:33N 47°34' W 122°21'0 0.0
2016-May-20 09:33N 47°34' W 122°21'0 0.0
2016-May-20 08:33N 47°34' W 122°21'0 0.1
2016-May-20 07:33N 47°34' W 122°21'3 2.9
2016-May-20 06:33N 47°35' W 122°25'8 8.5
2016-May-20 05:33N 47°28' W 122°31'9 9.0
2016-May-20 04:33N 47°19' W 122°33'9 8.6
2016-May-20 03:33N 47°11' W 122°39'3 0.1
2016-May-19 07:33N 47°13' W 122°36'7 7.2
2016-May-19 06:33N 47°20' W 122°33'7 7.2
2016-May-19 05:33N 47°27' W 122°31'6 6.3
2016-May-19 04:33N 47°33' W 122°28'7 6.8
2016-May-19 03:33N 47°40' W 122°28'7 7.3
2016-May-19 02:33N 47°47' W 122°25'6 6.2
2016-May-19 01:33N 47°53' W 122°22'6 6.3
2016-May-19 00:33N 47°59' W 122°20'5 4.5
2016-May-18 23:32N 48°01' W 122°13'2 0.7
2016-May-18 21:06N 48°01' W 122°11'0 0.0
2016-May-18 20:33N 48°01' W 122°11'0 0.0
2016-May-18 19:33N 48°01' W 122°11'0 0.0
2016-May-18 15:33N 48°01' W 122°11'0 0.0
2016-May-18 14:31N 48°01' W 122°11'0 0.0
2016-May-18 10:23N 48°01' W 122°11'3 3.0
2016-May-18 09:34N 47°59' W 122°14'6 5.9
2016-May-18 08:33N 47°55' W 122°20'7 7.1
2016-May-18 07:33N 47°49' W 122°24'7 7.1
2016-May-18 06:33N 47°42' W 122°26'7 7.3
2016-May-18 05:33N 47°35' W 122°28'7 6.8
2016-May-18 04:33N 47°28' W 122°31'7 7.2
2016-May-18 03:34N 47°21' W 122°33'8 8.0
2016-May-18 02:33N 47°13' W 122°36'1 0.1
2016-May-17 07:31N 47°12' W 122°37'8 8.0
2016-May-17 06:33N 47°20' W 122°33'7 7.1
2016-May-17 05:33N 47°26' W 122°31'7 7.0
2016-May-17 04:33N 47°33' W 122°27'5 4.5
2016-May-17 03:33N 47°34' W 122°21'1 0.6
2016-May-17 02:33N 47°33' W 122°21'0 0.0
2016-May-17 01:33N 47°33' W 122°21'0 0.0
2016-May-17 00:33N 47°33' W 122°21'0 0.0
2016-May-16 23:33N 47°33' W 122°21'0 0.0
2016-May-16 22:33N 47°33' W 122°21'0 0.0
2016-May-16 21:34N 47°33' W 122°21'0 0.0
2016-May-16 20:33N 47°33' W 122°21'0 0.0
2016-May-16 19:33N 47°33' W 122°21'0 0.0
2016-May-16 18:33N 47°33' W 122°21'0 0.0
2016-May-16 17:33N 47°33' W 122°21'0 0.0
2016-May-16 16:33N 47°33' W 122°21'1 0.7
2016-May-16 15:33N 47°34' W 122°21'4 4.0
2016-May-16 14:33N 47°33' W 122°27'9 8.8
2016-May-16 13:33N 47°25' W 122°32'10 9.6
2016-May-16 12:33N 47°15' W 122°34'  

Dump ship's entire track history